Flugplatz Nuremberg

Bericht für EDDN

vom 26.09. um 23:50 UTC

Wind 8 kt aus 190°

Sichtweite 10 km oder mehr

aufgebrochene Bewölkung in 1000 ft

aufgebrochene Bewölkung in 2000 ft

Temperatur 8.0°C

Taupunkt 7.0°C

Luftfeuchtigkeit 93%

Luftdruck 999 hPa

EDDN 262350Z 19008KT 9999 BKN010 BKN020 08/07 Q0999

Prognose für EDDN

vom 26.09. um 23:00 UTC

Zwischen 00:00 UTC und 17:00 UTC

Wind 8 kt aus 190°

Sichtweite 10 km oder mehr

gering bewölkt in 900 ft

aufgebrochene Bewölkung in 3000 ft


Zwischen 00:00 UTC und 08:00 UTC zeitweise

aufgebrochene Bewölkung in 900 ft


Zwischen 17:00 UTC und 00:00 UTC

variable Windrichtung mit 2 kt

Sichtweite 10 km oder mehr

gering bewölkt in 4000 ft

TAF EDDN 262300Z 2700/2724 19008KT 9999 FEW009 BKN030 TEMPO 2700/2708 BKN009 FM271700 VRB02KT 9999 FEW040
Impressum